Time;durP1;ratioP1;P1;durP2;ratioP2;P2;SDS_P1;SDS_P2;PMS_P1;PMS_P2;Temp;Humidity;BMP_temperature;BMP_pressure;BME280_temperature;BME280_humidity;BME280_pressure;Samples;Min_cycle;Max_cycle;Signal;HPM_P1;HPM_P2
2022/12/05 00:02:03;;;;;;;17.85;10.40;;;3.50;1.00;;;;;;5092740;28;20276;-78
2022/12/05 00:04:31;;;;;;;16.83;10.43;;;3.50;1.00;;;;;;5095544;28;20221;-78
2022/12/05 00:06:59;;;;;;;16.10;10.70;;;3.50;1.00;;;;;;5088149;28;20209;-79
2022/12/05 00:09:28;;;;;;;17.42;10.35;;;3.50;1.00;;;;;;5089668;28;20224;-79
2022/12/05 00:11:56;;;;;;;16.17;10.35;;;3.40;1.00;;;;;;5094125;28;20568;-79
2022/12/05 00:14:26;;;;;;;14.35;11.02;;;3.60;1.00;;;;;;5093672;27;20210;-80
2022/12/05 00:16:54;;;;;;;14.00;11.27;;;3.50;1.00;;;;;;5093403;28;20681;-79
2022/12/05 00:19:23;;;;;;;14.68;10.43;;;3.60;1.00;;;;;;5085911;28;20278;-79
2022/12/05 00:21:51;;;;;;;15.02;11.10;;;3.70;1.00;;;;;;5085825;28;20254;-79
2022/12/05 00:24:20;;;;;;;15.13;9.30;;;3.70;99.90;;;;;;5085095;28;20192;-79
2022/12/05 00:26:48;;;;;;;19.67;11.45;;;3.60;1.00;;;;;;5083199;28;20211;-79
2022/12/05 00:29:17;;;;;;;16.95;10.80;;;3.50;1.00;;;;;;5085040;28;20215;-79
2022/12/05 00:31:46;;;;;;;16.67;10.07;;;3.60;1.00;;;;;;5086759;28;20810;-78
2022/12/05 00:34:15;;;;;;;15.40;11.23;;;3.60;1.00;;;;;;5084368;28;20210;-77
2022/12/05 00:36:43;;;;;;;15.07;9.60;;;3.60;1.00;;;;;;5082937;28;20206;-77
2022/12/05 00:39:13;;;;;;;10.52;8.90;;;3.70;1.00;;;;;;5083033;28;20241;-79
2022/12/05 00:41:42;;;;;;;12.55;9.48;;;3.60;1.00;;;;;;5086998;28;20288;-77
2022/12/05 00:44:11;;;;;;;12.27;9.30;;;3.50;1.00;;;;;;5078898;28;20201;-77
2022/12/05 00:46:40;;;;;;;12.95;9.55;;;3.60;1.00;;;;;;5085675;28;20207;-79
2022/12/05 00:49:11;;;;;;;13.98;9.02;;;3.60;1.00;;;;;;5083419;28;20221;-78
2022/12/05 00:51:41;;;;;;;9.85;8.73;;;3.70;1.00;;;;;;5084488;28;20194;-78
2022/12/05 00:54:12;;;;;;;14.70;9.32;;;3.80;99.90;;;;;;5086185;28;20737;-78
2022/12/05 00:56:40;;;;;;;15.60;9.98;;;3.70;99.90;;;;;;5092310;28;20204;-78
2022/12/05 00:59:12;;;;;;;11.65;8.98;;;3.60;99.90;;;;;;5090612;28;20248;-79
2022/12/05 01:01:41;;;;;;;11.60;9.15;;;3.70;99.90;;;;;;5090275;28;20197;-79
2022/12/05 01:04:13;;;;;;;9.90;8.63;;;3.60;99.90;;;;;;5090027;28;20225;-79
2022/12/05 01:06:42;;;;;;;11.70;8.23;;;3.70;99.90;;;;;;5092525;28;20211;-79
2022/12/05 01:09:13;;;;;;;13.95;8.98;;;3.80;99.90;;;;;;5092152;28;20231;-78
2022/12/05 01:11:43;;;;;;;14.38;9.15;;;3.70;99.90;;;;;;5100300;28;20708;-79
2022/12/05 01:14:13;;;;;;;11.80;10.30;;;3.60;99.90;;;;;;5096805;28;20284;-79
2022/12/05 01:16:43;;;;;;;13.52;8.30;;;3.70;99.90;;;;;;5095510;28;20209;-79
2022/12/05 01:19:15;;;;;;;14.05;9.85;;;3.60;99.90;;;;;;5097076;28;20218;-80
2022/12/05 01:21:43;;;;;;;12.15;9.38;;;3.60;1.00;;;;;;5099431;28;20218;-80
2022/12/05 01:24:12;;;;;;;15.02;9.05;;;3.60;1.00;;;;;;5099234;28;20557;-80
2022/12/05 01:26:41;;;;;;;10.65;7.88;;;3.60;1.00;;;;;;5098536;28;20302;-81
2022/12/05 01:29:10;;;;;;;12.63;9.88;;;3.60;1.00;;;;;;5098633;28;20219;-80
2022/12/05 01:31:39;;;;;;;12.10;9.18;;;3.60;1.00;;;;;;5094594;28;20290;-80
2022/12/05 01:34:10;;;;;;;16.77;10.70;;;3.60;1.00;;;;;;5094195;28;20567;-80
2022/12/05 01:36:41;;;;;;;15.43;9.18;;;3.50;1.00;;;;;;5101040;28;20293;-80
2022/12/05 01:39:10;;;;;;;13.25;9.13;;;3.50;1.00;;;;;;5093964;28;20234;-79
2022/12/05 01:41:41;;;;;;;16.63;9.70;;;3.50;1.00;;;;;;5095032;28;20677;-80
2022/12/05 01:44:48;;;;;;;16.75;11.48;;;3.40;1.00;;;;;;5096802;28;20204;-80
2022/12/05 01:47:17;;;;;;;14.98;9.23;;;3.40;1.00;;;;;;5092315;28;20218;-80
2022/12/05 01:49:46;;;;;;;13.02;10.07;;;3.40;1.00;;;;;;5093605;28;20226;-79
2022/12/05 01:52:19;;;;;;;14.52;10.68;;;3.30;1.00;;;;;;5098353;28;20205;-81
2022/12/05 01:54:50;;;;;;;18.27;10.65;;;3.40;1.00;;;;;;5098218;28;20229;-81
2022/12/05 01:57:18;;;;;;;15.25;10.13;;;3.50;1.00;;;;;;5097993;28;20233;-81
2022/12/05 01:59:51;;;;;;;18.05;10.43;;;3.40;1.00;;;;;;5095307;27;20226;-80
2022/12/05 02:02:20;;;;;;;19.75;10.73;;;3.50;1.00;;;;;;5095186;27;20194;-79
2022/12/05 02:04:57;;;;;;;17.10;12.05;;;3.40;1.00;;;;;;5094893;28;20206;-81
2022/12/05 02:07:27;;;;;;;17.65;10.02;;;3.30;1.00;;;;;;5102012;27;20599;-81
2022/12/05 02:09:55;;;;;;;17.70;11.75;;;3.40;1.00;;;;;;5098602;28;20246;-80
2022/12/05 02:12:25;;;;;;;17.95;12.02;;;3.50;1.00;;;;;;5095746;27;20710;-80
2022/12/05 02:15:04;;;;;;;14.43;9.68;;;3.40;1.00;;;;;;5095757;28;20210;-78
2022/12/05 02:17:43;;;;;;;14.50;9.73;;;3.60;1.00;;;;;;5097970;28;20246;-80
2022/12/05 02:20:35;;;;;;;17.20;10.75;;;3.60;1.00;;;;;;5097155;27;20230;-79
2022/12/05 02:23:29;;;;;;;18.70;11.88;;;3.50;1.00;;;;;;5092580;28;20213;-79
2022/12/05 02:26:31;;;;;;;20.30;11.80;;;3.40;1.00;;;;;;5096229;27;20329;-80
2022/12/05 02:29:41;;;;;;;16.35;11.38;;;3.50;1.00;;;;;;5071953;28;20239;-80
2022/12/05 02:32:15;;;;;;;22.75;11.95;;;3.40;1.00;;;;;;5097720;28;20191;-79
2022/12/05 02:34:54;;;;;;;22.23;11.75;;;3.60;1.00;;;;;;5094799;27;20227;-80
2022/12/05 02:37:29;;;;;;;21.35;12.02;;;3.50;1.00;;;;;;5101586;27;20198;-80
2022/12/05 02:40:05;;;;;;;16.08;11.00;;;3.50;1.00;;;;;;5094234;28;20218;-80
2022/12/05 02:42:41;;;;;;;15.45;11.73;;;3.50;1.00;;;;;;5102307;27;20220;-80
2022/12/05 02:45:14;;;;;;;15.57;11.02;;;3.40;1.00;;;;;;5099919;28;20190;-81
2022/12/05 02:47:45;;;;;;;14.25;10.90;;;3.50;1.00;;;;;;5099288;28;20209;-80
2022/12/05 02:50:18;;;;;;;17.20;11.43;;;3.50;1.00;;;;;;5093033;28;20221;-79
2022/12/05 02:52:48;;;;;;;17.10;11.55;;;3.50;1.00;;;;;;5095861;28;20715;-79
2022/12/05 02:55:19;;;;;;;16.70;12.52;;;3.60;1.00;;;;;;5098489;28;20202;-81
2022/12/05 02:57:52;;;;;;;16.60;10.85;;;3.50;1.00;;;;;;5094522;27;20257;-79
2022/12/05 03:00:22;;;;;;;16.85;10.77;;;3.60;1.00;;;;;;5095673;28;20235;-79
2022/12/05 03:02:54;;;;;;;19.15;12.00;;;3.60;1.00;;;;;;5093492;27;20263;-79
2022/12/05 03:05:32;;;;;;;16.33;11.70;;;3.60;1.00;;;;;;5096457;27;20541;-79
2022/12/05 03:08:04;;;;;;;14.82;11.10;;;3.60;1.00;;;;;;5096383;28;20194;-79
2022/12/05 03:10:34;;;;;;;16.25;11.38;;;3.60;1.00;;;;;;5095955;28;20266;-79
2022/12/05 03:13:07;;;;;;;13.30;10.43;;;3.60;1.00;;;;;;5099830;27;20519;-79
2022/12/05 03:15:41;;;;;;;15.55;10.68;;;3.60;1.00;;;;;;5097288;27;20209;-79
2022/12/05 03:18:15;;;;;;;19.70;11.88;;;3.80;1.00;;;;;;5102958;28;20630;-78
2022/12/05 03:20:48;;;;;;;18.98;11.10;;;3.70;1.00;;;;;;5094354;28;20261;-80
2022/12/05 03:23:20;;;;;;;17.30;11.00;;;3.70;1.00;;;;;;5096684;28;20746;-80
2022/12/05 03:25:54;;;;;;;16.85;11.48;;;3.70;1.00;;;;;;5091987;28;20258;-80
2022/12/05 03:28:29;;;;;;;17.88;11.18;;;3.80;1.00;;;;;;5093263;28;20207;-79
2022/12/05 03:31:06;;;;;;;13.88;11.18;;;3.90;1.00;;;;;;5077962;28;20248;-79
2022/12/05 03:33:40;;;;;;;18.63;11.23;;;3.90;1.00;;;;;;5092839;27;20205;-80
2022/12/05 03:36:15;;;;;;;16.10;10.93;;;3.70;1.00;;;;;;5097228;28;20203;-78
2022/12/05 03:38:49;;;;;;;20.48;12.38;;;3.70;1.00;;;;;;5093780;28;20206;-79
2022/12/05 03:41:23;;;;;;;16.67;11.55;;;3.70;1.00;;;;;;5094885;27;20194;-79
2022/12/05 03:43:56;;;;;;;14.13;11.35;;;3.70;1.00;;;;;;5095341;27;20542;-79
2022/12/05 03:46:30;;;;;;;14.27;11.30;;;3.70;1.00;;;;;;5094579;28;20219;-78
2022/12/05 03:49:04;;;;;;;15.77;10.48;;;3.80;1.00;;;;;;5093116;28;20225;-80
2022/12/05 03:51:37;;;;;;;13.60;9.77;;;3.70;1.00;;;;;;5096180;27;20216;-80
2022/12/05 03:54:10;;;;;;;16.42;10.80;;;3.90;1.00;;;;;;5094144;27;20206;-79
2022/12/05 03:56:44;;;;;;;12.35;10.65;;;3.90;1.00;;;;;;5096075;28;20202;-80
2022/12/05 03:59:18;;;;;;;14.57;10.73;;;3.90;1.00;;;;;;5098282;28;20859;-80
2022/12/05 04:01:51;;;;;;;17.25;11.13;;;3.90;1.00;;;;;;5092726;28;20288;-80
2022/12/05 04:04:26;;;;;;;14.63;9.18;;;3.80;1.00;;;;;;5091602;28;20210;-80
2022/12/05 04:06:58;;;;;;;11.40;9.85;;;3.90;1.00;;;;;;5094600;28;20217;-80
2022/12/05 04:09:31;;;;;;;12.30;9.77;;;3.80;1.00;;;;;;5094575;27;20215;-79
2022/12/05 04:12:03;;;;;;;13.27;10.40;;;4.00;1.00;;;;;;5096650;28;20492;-80
2022/12/05 04:14:35;;;;;;;13.15;10.60;;;3.80;1.00;;;;;;5093592;28;20800;-79
2022/12/05 04:17:08;;;;;;;14.52;10.77;;;3.80;1.00;;;;;;5093565;28;20745;-79
2022/12/05 04:22:27;;;;;;;14.77;10.27;;;3.90;1.00;;;;;;5089868;28;20203;-79
2022/12/05 04:27:52;;;;;;;10.13;9.07;;;3.80;1.00;;;;;;5093625;28;20215;-79
2022/12/05 04:30:22;;;;;;;14.23;11.27;;;3.90;1.00;;;;;;5093489;28;20222;-79
2022/12/05 04:33:00;;;;;;;14.55;10.23;;;3.90;1.00;;;;;;5092721;28;20732;-79
2022/12/05 04:35:31;;;;;;;17.27;10.77;;;3.80;1.00;;;;;;5094215;28;20188;-79
2022/12/05 04:38:04;;;;;;;13.52;10.35;;;3.90;1.00;;;;;;5094069;28;20276;-79
2022/12/05 04:40:38;;;;;;;13.75;9.93;;;3.90;1.00;;;;;;5101660;28;20217;-80
2022/12/05 04:43:08;;;;;;;16.52;10.93;;;3.80;1.00;;;;;;5097771;28;20713;-80
2022/12/05 04:45:38;;;;;;;13.82;9.35;;;3.80;1.00;;;;;;5098858;28;20194;-80
2022/12/05 04:48:12;;;;;;;11.07;9.68;;;3.90;1.00;;;;;;5095866;28;20209;-81
2022/12/05 04:50:42;;;;;;;15.23;10.35;;;3.80;1.00;;;;;;5099488;28;20224;-79
2022/12/05 04:53:12;;;;;;;13.13;10.25;;;3.70;1.00;;;;;;5094144;28;20213;-79
2022/12/05 04:55:45;;;;;;;11.43;10.23;;;3.70;1.00;;;;;;5095378;28;20194;-80
2022/12/05 04:58:16;;;;;;;12.32;9.10;;;3.70;1.00;;;;;;5094028;28;20198;-80
2022/12/05 05:00:50;;;;;;;10.52;9.25;;;3.80;1.00;;;;;;5091164;28;20208;-80
2022/12/05 05:03:26;;;;;;;12.27;10.02;;;3.70;1.00;;;;;;5088641;28;20222;-78
2022/12/05 05:05:56;;;;;;;10.52;8.95;;;3.70;1.00;;;;;;5092351;28;20203;-80
2022/12/05 05:08:27;;;;;;;10.27;8.98;;;3.80;1.00;;;;;;5093961;28;20209;-80
2022/12/05 05:11:06;;;;;;;10.43;9.45;;;3.70;1.00;;;;;;5092696;28;20659;-80
2022/12/05 05:13:34;;;;;;;13.68;9.30;;;3.70;1.00;;;;;;5097010;28;20189;-79
2022/12/05 05:16:03;;;;;;;11.90;9.43;;;3.70;1.00;;;;;;5095891;28;20200;-79
2022/12/05 05:18:33;;;;;;;10.10;9.10;;;3.70;1.00;;;;;;5098919;27;20196;-79
2022/12/05 05:21:01;;;;;;;12.82;10.80;;;3.70;1.00;;;;;;5097540;27;20206;-80
2022/12/05 05:23:31;;;;;;;12.07;9.68;;;3.80;1.00;;;;;;5096280;28;20221;-78
2022/12/05 05:25:59;;;;;;;10.07;9.05;;;3.80;1.00;;;;;;5096178;28;20896;-79
2022/12/05 05:28:28;;;;;;;12.85;11.05;;;3.70;1.00;;;;;;5099606;28;20623;-77
2022/12/05 05:31:01;;;;;;;11.82;9.18;;;3.70;1.00;;;;;;5098828;28;20869;-79
2022/12/05 05:33:30;;;;;;;11.02;9.48;;;3.70;1.00;;;;;;5101922;28;20201;-79
2022/12/05 05:36:04;;;;;;;10.40;9.32;;;3.70;1.00;;;;;;5098258;28;20194;-77
2022/12/05 05:38:36;;;;;;;10.38;9.27;;;3.80;1.00;;;;;;5099578;28;20183;-80
2022/12/05 05:41:05;;;;;;;11.45;9.23;;;3.90;1.00;;;;;;5101952;27;20205;-80
2022/12/05 05:43:33;;;;;;;9.90;9.00;;;3.90;1.00;;;;;;5104676;27;20194;-80
2022/12/05 05:46:04;;;;;;;10.38;9.38;;;4.00;1.00;;;;;;5101945;27;20209;-79
2022/12/05 05:48:32;;;;;;;10.48;9.48;;;4.00;1.00;;;;;;5098987;28;20443;-79
2022/12/05 05:51:01;;;;;;;9.38;8.57;;;4.00;1.00;;;;;;5106615;28;20272;-80
2022/12/05 05:53:30;;;;;;;9.63;8.63;;;4.10;1.00;;;;;;5101055;27;20210;-79
2022/12/05 05:56:02;;;;;;;8.50;7.65;;;4.10;1.00;;;;;;5093073;28;20235;-78
2022/12/05 05:58:31;;;;;;;9.38;8.48;;;4.20;1.00;;;;;;5094710;28;20229;-79
2022/12/05 06:01:03;;;;;;;8.65;7.85;;;4.20;1.00;;;;;;5091829;28;20199;-78
2022/12/05 06:03:31;;;;;;;9.50;8.60;;;4.10;1.00;;;;;;5090351;28;20209;-77
2022/12/05 06:06:02;;;;;;;8.75;8.02;;;4.10;1.00;;;;;;5095881;27;20266;-78
2022/12/05 06:08:33;;;;;;;10.02;9.07;;;4.10;1.00;;;;;;5089307;28;20442;-78
2022/12/05 06:11:06;;;;;;;10.10;8.73;;;4.00;1.00;;;;;;5089713;27;20750;-79
2022/12/05 06:13:35;;;;;;;10.73;9.70;;;4.10;1.00;;;;;;5090744;27;20745;-78
2022/12/05 06:16:06;;;;;;;9.55;8.57;;;4.10;1.00;;;;;;5086850;28;20199;-79
2022/12/05 06:18:35;;;;;;;10.38;9.38;;;4.10;1.00;;;;;;5089873;28;21070;-78
2022/12/05 06:21:04;;;;;;;9.20;8.30;;;4.10;1.00;;;;;;5083510;28;20224;-78
2022/12/05 06:23:35;;;;;;;9.25;8.35;;;4.10;1.00;;;;;;5089789;28;20742;-78
2022/12/05 06:26:04;;;;;;;8.30;7.60;;;4.20;1.00;;;;;;5094643;28;20198;-78
2022/12/05 06:28:33;;;;;;;9.10;8.20;;;4.20;1.00;;;;;;5092987;28;20215;-78
2022/12/05 06:31:07;;;;;;;9.98;9.07;;;4.10;1.00;;;;;;5094153;28;20203;-78
2022/12/05 06:33:35;;;;;;;9.65;8.50;;;4.20;1.00;;;;;;5093273;27;20206;-78
2022/12/05 06:36:06;;;;;;;10.93;9.73;;;4.20;1.00;;;;;;5094227;27;20205;-78
2022/12/05 06:38:36;;;;;;;8.95;8.25;;;4.20;1.00;;;;;;5089465;28;20198;-78
2022/12/05 06:41:11;;;;;;;10.27;9.27;;;4.20;1.00;;;;;;5094108;28;20195;-78
2022/12/05 06:43:39;;;;;;;11.23;10.07;;;4.20;1.00;;;;;;5093975;28;20215;-78
2022/12/05 06:46:09;;;;;;;8.93;8.13;;;4.20;1.00;;;;;;5088341;28;20203;-78
2022/12/05 06:48:37;;;;;;;9.00;8.30;;;4.10;1.00;;;;;;5100390;28;20583;-78
2022/12/05 06:51:08;;;;;;;11.38;8.90;;;4.10;1.00;;;;;;5097584;28;20511;-79
2022/12/05 06:53:38;;;;;;;9.63;8.55;;;4.10;1.00;;;;;;5091584;27;20192;-79
2022/12/05 06:56:11;;;;;;;9.57;8.75;;;4.10;1.00;;;;;;5091893;28;20203;-78
2022/12/05 06:58:39;;;;;;;9.85;8.90;;;4.10;1.00;;;;;;5092744;28;20199;-79
2022/12/05 07:03:58;;;;;;;8.63;7.93;;;4.20;1.00;;;;;;5094415;28;20313;-80
2022/12/05 07:06:27;;;;;;;9.90;9.10;;;4.10;1.00;;;;;;5085838;28;20782;-79
2022/12/05 07:08:57;;;;;;;10.32;9.32;;;4.10;1.00;;;;;;5087029;28;20256;-79
2022/12/05 07:11:26;;;;;;;10.23;9.38;;;4.20;1.00;;;;;;5087324;27;20206;-79
2022/12/05 07:13:55;;;;;;;10.38;9.48;;;4.20;1.00;;;;;;5093878;28;20198;-79
2022/12/05 07:16:24;;;;;;;11.30;10.30;;;4.20;1.00;;;;;;5089879;28;20203;-80
2022/12/05 07:18:52;;;;;;;9.73;8.75;;;4.30;1.00;;;;;;5093447;28;20766;-79
2022/12/05 07:21:21;;;;;;;9.52;8.75;;;4.40;1.00;;;;;;5093549;27;20225;-80
2022/12/05 07:23:50;;;;;;;9.52;8.82;;;4.40;1.00;;;;;;5080234;28;20194;-80
2022/12/05 07:26:21;;;;;;;9.90;9.00;;;4.60;1.00;;;;;;5089057;28;20982;-80
2022/12/05 07:28:51;;;;;;;8.80;7.95;;;4.50;1.00;;;;;;5090228;27;20826;-80
2022/12/05 07:31:22;;;;;;;8.93;8.23;;;4.50;1.00;;;;;;5089496;28;20260;-80
2022/12/05 07:33:50;;;;;;;12.18;9.00;;;4.50;1.00;;;;;;5088030;28;20689;-80
2022/12/05 07:36:22;;;;;;;12.18;9.95;;;4.50;1.00;;;;;;5088657;28;20198;-80
2022/12/05 07:38:55;;;;;;;9.40;8.50;;;4.40;1.00;;;;;;5092654;27;20299;-81
2022/12/05 07:41:27;;;;;;;10.40;9.40;;;4.50;1.00;;;;;;5092652;28;20299;-80
2022/12/05 07:43:57;;;;;;;10.35;8.25;;;4.50;1.00;;;;;;5094645;28;20763;-80
2022/12/05 07:46:27;;;;;;;9.20;8.40;;;4.60;1.00;;;;;;5095252;28;20191;-79
2022/12/05 07:48:56;;;;;;;8.80;8.00;;;4.60;1.00;;;;;;5092774;28;20220;-81
2022/12/05 07:51:24;;;;;;;10.02;9.07;;;4.60;1.00;;;;;;5091289;28;20293;-80
2022/12/05 07:53:53;;;;;;;10.40;8.95;;;4.70;1.00;;;;;;5094976;28;20291;-78
2022/12/05 07:56:22;;;;;;;10.13;9.32;;;4.60;1.00;;;;;;5092466;28;20200;-81
2022/12/05 07:58:52;;;;;;;9.80;8.70;;;4.70;1.00;;;;;;5096122;28;20214;-81
2022/12/05 08:01:23;;;;;;;8.90;8.05;;;4.70;1.00;;;;;;5093542;28;20668;-80
2022/12/05 08:03:54;;;;;;;9.00;8.13;;;4.70;1.00;;;;;;5092087;28;20200;-81
2022/12/05 08:06:24;;;;;;;8.13;7.63;;;4.70;1.00;;;;;;5092606;28;20206;-81
2022/12/05 08:08:54;;;;;;;10.43;8.73;;;4.70;1.00;;;;;;5090360;28;20224;-80
2022/12/05 08:11:24;;;;;;;8.20;7.50;;;4.80;1.00;;;;;;5095383;28;20716;-82
2022/12/05 08:13:55;;;;;;;9.70;8.70;;;4.80;1.00;;;;;;5097610;28;20207;-81
2022/12/05 08:16:26;;;;;;;9.23;8.43;;;4.90;1.00;;;;;;5097575;28;20761;-80
2022/12/05 08:18:55;;;;;;;9.30;8.52;;;5.00;1.00;;;;;;5100523;28;20272;-80
2022/12/05 08:21:25;;;;;;;9.55;8.65;;;5.00;1.00;;;;;;5094836;28;20211;-80
2022/12/05 08:23:53;;;;;;;9.38;8.50;;;4.90;1.00;;;;;;5096407;28;20208;-79
2022/12/05 08:26:24;;;;;;;10.20;9.25;;;4.90;1.00;;;;;;5097447;28;20300;-83
2022/12/05 08:28:55;;;;;;;9.48;8.70;;;4.80;1.00;;;;;;5093207;28;20233;-81
2022/12/05 08:31:25;;;;;;;9.15;8.35;;;4.90;1.00;;;;;;5097546;28;20285;-80
2022/12/05 08:33:57;;;;;;;8.68;8.02;;;4.80;1.00;;;;;;5096243;28;20203;-80
2022/12/05 08:36:27;;;;;;;9.65;8.85;;;4.90;1.00;;;;;;5098663;28;20186;-80
2022/12/05 08:38:57;;;;;;;9.25;8.45;;;4.90;1.00;;;;;;5093982;28;20215;-81
2022/12/05 08:41:28;;;;;;;10.35;9.65;;;5.00;1.00;;;;;;5096685;28;20196;-80
2022/12/05 08:44:00;;;;;;;9.65;8.95;;;4.90;1.00;;;;;;5093100;28;20195;-80
2022/12/05 08:46:28;;;;;;;9.63;8.90;;;4.90;1.00;;;;;;5092890;28;20196;-80
2022/12/05 08:48:57;;;;;;;9.48;8.70;;;4.90;1.00;;;;;;5100017;28;20282;-81
2022/12/05 08:51:25;;;;;;;9.20;8.40;;;4.90;1.00;;;;;;5099079;27;20200;-79
2022/12/05 08:53:55;;;;;;;9.55;8.75;;;5.00;1.00;;;;;;5101181;27;20686;-80
2022/12/05 08:56:24;;;;;;;9.40;8.68;;;5.00;1.00;;;;;;5110012;27;20762;-79
2022/12/05 08:58:54;;;;;;;9.35;8.65;;;5.10;1.00;;;;;;5109723;28;20227;-80
2022/12/05 09:01:37;;;;;;;9.35;8.52;;;5.20;1.00;;;;;;5109678;28;20249;-81
2022/12/05 09:04:09;;;;;;;9.70;9.00;;;5.20;1.00;;;;;;5106602;28;20206;-81
2022/12/05 09:06:38;;;;;;;10.60;9.65;;;5.30;1.00;;;;;;5109269;28;20218;-81
2022/12/05 09:09:10;;;;;;;10.30;9.30;;;5.40;1.00;;;;;;5102654;28;20228;-79
2022/12/05 09:11:44;;;;;;;9.40;8.60;;;5.40;1.00;;;;;;5101538;28;20438;-80
2022/12/05 09:14:13;;;;;;;9.27;8.63;;;5.50;1.00;;;;;;5104922;28;20460;-79
2022/12/05 09:16:44;;;;;;;10.93;10.02;;;5.50;99.90;;;;;;5097676;28;20479;-80
2022/12/05 09:19:15;;;;;;;9.40;8.60;;;5.30;99.90;;;;;;5105588;28;20212;-81
2022/12/05 09:21:44;;;;;;;9.60;8.90;;;5.30;99.90;;;;;;5104035;27;20192;-81
2022/12/05 09:24:13;;;;;;;10.00;9.10;;;5.20;1.00;;;;;;5105169;27;20199;-81
2022/12/05 09:26:42;;;;;;;11.35;10.20;;;5.30;1.00;;;;;;5104516;28;20187;-81
2022/12/05 09:29:11;;;;;;;9.10;8.40;;;5.30;1.00;;;;;;5103992;28;20214;-81
2022/12/05 09:31:47;;;;;;;8.63;8.00;;;5.30;1.00;;;;;;5104157;28;20205;-81
2022/12/05 09:34:16;;;;;;;9.45;8.80;;;5.30;99.90;;;;;;5102989;28;20258;-81
2022/12/05 09:36:48;;;;;;;9.67;8.90;;;5.40;1.00;;;;;;5104849;28;20200;-80
2022/12/05 09:39:16;;;;;;;9.32;8.73;;;5.40;1.00;;;;;;5104275;28;20484;-81
2022/12/05 09:42:04;;;;;;;9.63;8.73;;;5.50;1.00;;;;;;5107620;28;20301;-80
2022/12/05 09:44:45;;;;;;;10.32;9.15;;;5.50;1.00;;;;;;5100688;28;20930;-80
2022/12/05 09:47:24;;;;;;;9.80;8.90;;;5.50;1.00;;;;;;5109316;27;20199;-81
2022/12/05 09:49:56;;;;;;;9.93;9.13;;;5.50;1.00;;;;;;5108612;28;20513;-81
2022/12/05 09:52:28;;;;;;;9.80;9.00;;;5.50;99.90;;;;;;5105804;28;20500;-81
2022/12/05 09:55:01;;;;;;;9.20;8.40;;;5.50;99.90;;;;;;5109902;27;20446;-81
2022/12/05 09:57:35;;;;;;;9.23;8.52;;;5.60;99.90;;;;;;5109188;28;20449;-81
2022/12/05 10:00:06;;;;;;;8.80;8.03;;;5.60;99.90;;;;;;5111858;28;20595;-81
2022/12/05 10:02:44;;;;;;;8.30;7.70;;;5.60;1.40;;;;;;5110191;28;20449;-80
2022/12/05 10:05:22;;;;;;;8.60;7.90;;;5.70;1.00;;;;;;5110639;28;20199;-80
2022/12/05 10:07:56;;;;;;;7.53;7.13;;;5.70;9.00;;;;;;5110379;28;20191;-81
2022/12/05 10:10:33;;;;;;;7.60;7.00;;;5.70;87.70;;;;;;5105217;28;20215;-81
2022/12/05 10:13:32;;;;;;;8.55;8.02;;;5.70;99.90;;;;;;5104771;27;20445;-81
2022/12/05 10:16:06;;;;;;;9.52;8.80;;;5.70;99.90;;;;;;5097520;28;20188;-81
2022/12/05 10:18:40;;;;;;;8.07;7.38;;;5.70;65.70;;;;;;5098063;28;20210;-81
2022/12/05 10:21:16;;;;;;;8.98;8.27;;;5.70;99.90;;;;;;5092530;28;20671;-81
2022/12/05 10:23:53;;;;;;;8.77;8.27;;;5.80;11.50;;;;;;5102356;28;20191;-81
2022/12/05 10:26:30;;;;;;;8.35;7.75;;;5.80;99.90;;;;;;5094245;28;20695;-81
2022/12/05 10:29:09;;;;;;;8.80;8.20;;;5.90;99.90;;;;;;5094552;28;20769;-81
2022/12/05 10:31:39;;;;;;;9.17;8.47;;;6.00;43.80;;;;;;5096157;28;20211;-81
2022/12/05 10:34:16;;;;;;;8.87;8.17;;;6.10;1.00;;;;;;5099704;28;20448;-80
2022/12/05 10:36:53;;;;;;;9.17;8.27;;;6.20;99.90;;;;;;5095755;28;20527;-81
2022/12/05 10:39:22;;;;;;;9.10;8.40;;;6.20;1.00;;;;;;5094720;28;20469;-81
2022/12/05 10:41:51;;;;;;;9.30;8.50;;;6.20;99.90;;;;;;5093070;28;20457;-81
2022/12/05 10:44:20;;;;;;;9.60;8.90;;;6.30;99.90;;;;;;5099268;28;20784;-81
2022/12/05 10:46:49;;;;;;;7.50;6.97;;;6.20;99.90;;;;;;5097113;28;20449;-80
2022/12/05 10:49:20;;;;;;;7.27;6.80;;;6.20;1.00;;;;;;5101994;28;20577;-81
2022/12/05 10:51:50;;;;;;;6.95;6.55;;;6.20;99.90;;;;;;5112344;27;20508;-81
2022/12/05 10:54:23;;;;;;;6.60;6.20;;;6.20;99.90;;;;;;5097434;28;20208;-80
2022/12/05 10:56:53;;;;;;;6.80;6.50;;;6.20;1.00;;;;;;5094111;28;20213;-81
2022/12/05 10:59:23;;;;;;;6.63;6.13;;;6.20;99.90;;;;;;5102577;27;20300;-81
2022/12/05 11:01:54;;;;;;;6.10;5.72;;;6.20;1.00;;;;;;5097815;27;20565;-82
2022/12/05 11:04:28;;;;;;;6.03;5.67;;;6.10;99.90;;;;;;5096639;28;20601;-82
2022/12/05 11:06:59;;;;;;;5.10;4.90;;;6.10;99.90;;;;;;5095470;28;20466;-81
2022/12/05 11:09:31;;;;;;;6.18;5.60;;;6.10;99.90;;;;;;5099116;27;20535;-82
2022/12/05 11:12:21;;;;;;;6.25;5.85;;;6.10;31.90;;;;;;5102929;28;20226;-82
2022/12/05 11:14:59;;;;;;;6.23;5.83;;;6.10;99.90;;;;;;5088455;28;20208;-81
2022/12/05 11:17:33;;;;;;;6.60;6.20;;;6.20;1.00;;;;;;5091428;28;20568;-82
2022/12/05 11:20:24;;;;;;;5.50;5.20;;;6.20;1.00;;;;;;5092163;28;20470;-82
2022/12/05 11:22:58;;;;;;;6.20;5.70;;;6.50;99.90;;;;;;5089831;28;20446;-82
2022/12/05 11:25:33;;;;;;;7.03;6.53;;;6.60;1.00;;;;;;5092972;28;20469;-82
2022/12/05 11:28:29;;;;;;;6.00;5.47;;;6.90;1.00;;;;;;5097484;28;20448;-82
2022/12/05 11:30:59;;;;;;;5.85;5.55;;;7.10;99.90;;;;;;5092202;27;20474;-82
2022/12/05 11:33:29;;;;;;;5.80;5.40;;;7.20;1.00;;;;;;5087891;28;20201;-81
2022/12/05 11:36:04;;;;;;;5.30;5.00;;;7.20;1.00;;;;;;5107498;27;20457;-82
2022/12/05 11:38:33;;;;;;;6.30;5.90;;;7.20;1.00;;;;;;5089700;27;20822;-81
2022/12/05 11:41:21;;;;;;;5.40;5.10;;;7.10;99.90;;;;;;5093233;28;21145;-81
2022/12/05 11:44:14;;;;;;;6.60;6.20;;;6.80;99.90;;;;;;5095464;27;20450;-81
2022/12/05 11:46:56;;;;;;;5.85;5.45;;;6.80;1.00;;;;;;5082506;27;20464;-80
2022/12/05 11:49:52;;;;;;;5.40;5.00;;;6.80;99.90;;;;;;5093949;27;20214;-80
2022/12/05 11:52:31;;;;;;;5.77;5.40;;;6.70;99.90;;;;;;5092984;28;20472;-82
2022/12/05 11:55:16;;;;;;;5.57;5.17;;;6.70;99.90;;;;;;5093573;28;20608;-81
2022/12/05 11:58:16;;;;;;;5.77;5.47;;;6.80;99.90;;;;;;5093148;28;20472;-80
2022/12/05 12:00:56;;;;;;;5.63;5.00;;;6.80;68.10;;;;;;5091911;28;20519;-82
2022/12/05 12:03:48;;;;;;;5.15;4.95;;;6.90;66.10;;;;;;5095381;28;20453;-82
2022/12/05 12:06:27;;;;;;;5.70;5.30;;;6.80;81.10;;;;;;5091936;28;20214;-80
2022/12/05 12:09:11;;;;;;;4.70;4.50;;;6.80;99.90;;;;;;5091848;27;20489;-81
2022/12/05 12:11:46;;;;;;;5.90;5.50;;;6.80;99.90;;;;;;5091124;28;20525;-81
2022/12/05 12:14:20;;;;;;;5.80;5.50;;;6.80;99.90;;;;;;5099663;28;20875;-81
2022/12/05 12:17:00;;;;;;;5.87;5.57;;;6.90;1.00;;;;;;5089902;28;20476;-81
2022/12/05 12:19:43;;;;;;;5.25;4.95;;;7.00;1.00;;;;;;5090368;28;20473;-82
2022/12/05 12:22:29;;;;;;;6.67;6.30;;;7.10;99.90;;;;;;5095514;28;20236;-81
2022/12/05 12:25:13;;;;;;;5.83;5.33;;;7.20;99.90;;;;;;5094443;28;20445;-80
2022/12/05 12:27:53;;;;;;;6.63;6.10;;;7.30;1.00;;;;;;5091447;28;20979;-81
2022/12/05 12:30:28;;;;;;;5.70;5.40;;;7.30;1.00;;;;;;5092795;28;20475;-81
2022/12/05 12:33:05;;;;;;;5.40;5.03;;;7.40;99.90;;;;;;5090774;28;21198;-82
2022/12/05 12:35:43;;;;;;;5.50;5.20;;;7.30;99.90;;;;;;5091800;28;20497;-80
2022/12/05 12:38:39;;;;;;;5.97;5.40;;;7.30;99.90;;;;;;5089992;28;21567;-79
2022/12/05 12:41:19;;;;;;;5.50;5.20;;;7.30;99.90;;;;;;5085072;28;21171;-82
2022/12/05 12:44:00;;;;;;;5.70;5.30;;;7.40;99.90;;;;;;5094810;28;20229;-80
2022/12/05 12:46:39;;;;;;;5.80;5.40;;;7.30;99.90;;;;;;5090604;28;20957;-81
2022/12/05 12:49:26;;;;;;;5.63;5.23;;;7.30;99.90;;;;;;5091403;28;20470;-81
2022/12/05 12:52:01;;;;;;;5.80;5.30;;;7.20;99.90;;;;;;5094181;28;20469;-81
2022/12/05 12:54:48;;;;;;;5.77;4.70;;;7.10;99.90;;;;;;5099915;28;20444;-80
2022/12/05 12:57:52;;;;;;;4.50;4.30;;;7.00;99.90;;;;;;5090844;28;21161;-81
2022/12/05 13:00:26;;;;;;;5.03;4.72;;;7.00;1.00;;;;;;5090132;28;20469;-81
2022/12/05 13:03:00;;;;;;;4.83;4.53;;;7.00;1.00;;;;;;5094900;28;20199;-82
2022/12/05 13:05:34;;;;;;;5.30;4.80;;;6.80;99.90;;;;;;5093701;28;20457;-82
2022/12/05 13:08:07;;;;;;;4.70;4.40;;;6.90;99.90;;;;;;5094971;28;21132;-83
2022/12/05 13:10:39;;;;;;;4.35;4.15;;;6.90;99.90;;;;;;5094240;28;20216;-81
2022/12/05 13:13:16;;;;;;;6.10;5.47;;;6.90;99.90;;;;;;5094679;28;20204;-81
2022/12/05 13:15:47;;;;;;;4.53;4.33;;;6.90;1.00;;;;;;5100550;28;20465;-82
2022/12/05 13:18:18;;;;;;;5.07;4.70;;;6.90;99.90;;;;;;5092589;28;20444;-81
2022/12/05 13:20:49;;;;;;;5.20;4.87;;;6.90;99.90;;;;;;5090643;28;21005;-82
2022/12/05 13:23:23;;;;;;;4.70;4.40;;;6.90;99.90;;;;;;5083376;28;20485;-81
2022/12/05 13:25:53;;;;;;;4.57;4.27;;;6.90;99.90;;;;;;5101352;28;20454;-80
2022/12/05 13:28:29;;;;;;;5.00;4.70;;;6.90;99.90;;;;;;5096396;28;20444;-82
2022/12/05 13:31:00;;;;;;;4.80;4.50;;;6.90;99.90;;;;;;5095867;28;20476;-81
2022/12/05 13:33:33;;;;;;;4.40;4.20;;;6.90;99.90;;;;;;5092077;28;20469;-82
2022/12/05 13:44:42;;;;;;;4.67;4.27;;;6.80;1.00;;;;;;5099783;28;20764;-82
2022/12/05 13:47:28;;;;;;;5.00;4.70;;;6.80;43.50;;;;;;5097899;28;21024;-81